sensor_id;sensor_type;location;lat;lon;timestamp;P1;durP1;ratioP1;P2;durP2;ratioP2
65279;SDS011;51878;55.748;48.742;2023-03-20T00:03:43;48.08;;;24.92;;
65279;SDS011;51878;55.748;48.742;2023-03-20T00:08:46;46.90;;;23.63;;
65279;SDS011;51878;55.748;48.742;2023-03-20T00:13:49;42.60;;;23.67;;
65279;SDS011;51878;55.748;48.742;2023-03-20T00:18:52;44.05;;;23.55;;
65279;SDS011;51878;55.748;48.742;2023-03-20T00:23:54;37.63;;;20.45;;
65279;SDS011;51878;55.748;48.742;2023-03-20T00:28:57;42.50;;;22.15;;
65279;SDS011;51878;55.748;48.742;2023-03-20T00:34:00;37.95;;;22.13;;
65279;SDS011;51878;55.748;48.742;2023-03-20T00:39:04;46.17;;;23.00;;
65279;SDS011;51878;55.748;48.742;2023-03-20T00:49:32;39.85;;;21.30;;
65279;SDS011;51878;55.748;48.742;2023-03-20T00:54:35;33.28;;;20.40;;
65279;SDS011;51878;55.748;48.742;2023-03-20T00:59:39;35.25;;;20.13;;
65279;SDS011;51878;55.748;48.742;2023-03-20T01:04:48;41.70;;;17.92;;
65279;SDS011;51878;55.748;48.742;2023-03-20T01:09:50;40.10;;;19.05;;
65279;SDS011;51878;55.748;48.742;2023-03-20T01:14:56;43.40;;;19.65;;
65279;SDS011;51878;55.748;48.742;2023-03-20T01:19:59;43.28;;;19.20;;
65279;SDS011;51878;55.748;48.742;2023-03-20T01:25:03;44.60;;;16.95;;
65279;SDS011;51878;55.748;48.742;2023-03-20T01:30:11;50.53;;;17.55;;
65279;SDS011;51878;55.748;48.742;2023-03-20T01:35:19;49.05;;;17.88;;
65279;SDS011;51878;55.748;48.742;2023-03-20T01:40:27;34.65;;;17.95;;
65279;SDS011;51878;55.748;48.742;2023-03-20T01:45:34;127.80;;;19.25;;
65279;SDS011;51878;55.748;48.742;2023-03-20T01:50:37;137.48;;;17.90;;
65279;SDS011;51878;55.748;48.742;2023-03-20T01:55:39;278.83;;;19.35;;
65279;SDS011;51878;55.748;48.742;2023-03-20T02:00:44;278.70;;;21.17;;
65279;SDS011;51878;55.748;48.742;2023-03-20T02:05:49;318.20;;;19.00;;
65279;SDS011;51878;55.748;48.742;2023-03-20T02:10:51;313.20;;;21.27;;
65279;SDS011;51878;55.748;48.742;2023-03-20T02:16:05;439.10;;;21.95;;
65279;SDS011;51878;55.748;48.742;2023-03-20T02:37:42;482.90;;;21.13;;
65279;SDS011;51878;55.748;48.742;2023-03-20T02:43:10;573.33;;;25.23;;
65279;SDS011;51878;55.748;48.742;2023-03-20T02:53:51;495.08;;;22.13;;
65279;SDS011;51878;55.748;48.742;2023-03-20T03:04:25;442.70;;;24.05;;
65279;SDS011;51878;55.748;48.742;2023-03-20T03:09:32;404.65;;;20.52;;
65279;SDS011;51878;55.748;48.742;2023-03-20T03:14:45;789.83;;;29.70;;
65279;SDS011;51878;55.748;48.742;2023-03-20T03:19:50;471.13;;;21.27;;
65279;SDS011;51878;55.748;48.742;2023-03-20T03:24:56;523.03;;;22.27;;
65279;SDS011;51878;55.748;48.742;2023-03-20T03:35:09;440.80;;;20.10;;
65279;SDS011;51878;55.748;48.742;2023-03-20T03:41:00;468.17;;;21.38;;
65279;SDS011;51878;55.748;48.742;2023-03-20T03:45:47;501.60;;;20.65;;
65279;SDS011;51878;55.748;48.742;2023-03-20T03:50:55;509.00;;;21.38;;
65279;SDS011;51878;55.748;48.742;2023-03-20T03:56:04;329.13;;;17.15;;
65279;SDS011;51878;55.748;48.742;2023-03-20T04:01:10;419.17;;;18.95;;
65279;SDS011;51878;55.748;48.742;2023-03-20T04:06:15;504.70;;;20.83;;
65279;SDS011;51878;55.748;48.742;2023-03-20T04:11:19;457.17;;;18.27;;
65279;SDS011;51878;55.748;48.742;2023-03-20T04:16:24;514.40;;;21.52;;
65279;SDS011;51878;55.748;48.742;2023-03-20T04:21:27;551.28;;;21.58;;
65279;SDS011;51878;55.748;48.742;2023-03-20T04:26:29;451.25;;;17.40;;
65279;SDS011;51878;55.748;48.742;2023-03-20T04:31:32;542.95;;;19.60;;
65279;SDS011;51878;55.748;48.742;2023-03-20T04:36:34;434.27;;;19.67;;
65279;SDS011;51878;55.748;48.742;2023-03-20T04:41:36;514.10;;;19.67;;
65279;SDS011;51878;55.748;48.742;2023-03-20T04:46:39;554.58;;;21.48;;
65279;SDS011;51878;55.748;48.742;2023-03-20T04:51:41;442.65;;;17.92;;
65279;SDS011;51878;55.748;48.742;2023-03-20T04:56:43;679.65;;;22.77;;
65279;SDS011;51878;55.748;48.742;2023-03-20T05:01:45;499.48;;;18.52;;
65279;SDS011;51878;55.748;48.742;2023-03-20T05:06:47;485.52;;;17.55;;
65279;SDS011;51878;55.748;48.742;2023-03-20T05:11:50;671.63;;;21.20;;
65279;SDS011;51878;55.748;48.742;2023-03-20T05:16:58;530.47;;;18.33;;
65279;SDS011;51878;55.748;48.742;2023-03-20T05:22:08;361.95;;;14.82;;
65279;SDS011;51878;55.748;48.742;2023-03-20T05:27:10;503.85;;;20.30;;
65279;SDS011;51878;55.748;48.742;2023-03-20T05:32:16;409.75;;;17.13;;
65279;SDS011;51878;55.748;48.742;2023-03-20T05:37:18;454.83;;;17.40;;
65279;SDS011;51878;55.748;48.742;2023-03-20T05:42:20;454.42;;;18.15;;
65279;SDS011;51878;55.748;48.742;2023-03-20T05:47:22;465.58;;;17.98;;
65279;SDS011;51878;55.748;48.742;2023-03-20T05:52:26;457.35;;;16.42;;
65279;SDS011;51878;55.748;48.742;2023-03-20T05:57:28;410.80;;;13.88;;
65279;SDS011;51878;55.748;48.742;2023-03-20T06:02:31;414.20;;;16.58;;
65279;SDS011;51878;55.748;48.742;2023-03-20T06:07:33;346.20;;;14.15;;
65279;SDS011;51878;55.748;48.742;2023-03-20T06:12:35;911.92;;;31.23;;
65279;SDS011;51878;55.748;48.742;2023-03-20T06:17:37;300.42;;;12.73;;
65279;SDS011;51878;55.748;48.742;2023-03-20T06:22:39;315.85;;;13.88;;
65279;SDS011;51878;55.748;48.742;2023-03-20T06:27:45;325.55;;;11.63;;
65279;SDS011;51878;55.748;48.742;2023-03-20T06:32:48;541.92;;;18.13;;
65279;SDS011;51878;55.748;48.742;2023-03-20T06:37:50;357.83;;;13.35;;
65279;SDS011;51878;55.748;48.742;2023-03-20T06:42:52;445.20;;;16.73;;
65279;SDS011;51878;55.748;48.742;2023-03-20T06:47:55;310.23;;;12.23;;
65279;SDS011;51878;55.748;48.742;2023-03-20T06:52:57;255.00;;;11.65;;
65279;SDS011;51878;55.748;48.742;2023-03-20T06:57:59;278.50;;;13.35;;
65279;SDS011;51878;55.748;48.742;2023-03-20T07:03:02;350.52;;;16.02;;
65279;SDS011;51878;55.748;48.742;2023-03-20T07:08:05;588.33;;;21.25;;
65279;SDS011;51878;55.748;48.742;2023-03-20T07:13:11;450.13;;;17.08;;
65279;SDS011;51878;55.748;48.742;2023-03-20T07:18:13;318.63;;;13.82;;
65279;SDS011;51878;55.748;48.742;2023-03-20T07:23:15;443.40;;;16.27;;
65279;SDS011;51878;55.748;48.742;2023-03-20T07:28:17;617.47;;;20.30;;
65279;SDS011;51878;55.748;48.742;2023-03-20T07:33:19;367.55;;;15.20;;
65279;SDS011;51878;55.748;48.742;2023-03-20T07:38:22;323.02;;;13.30;;
65279;SDS011;51878;55.748;48.742;2023-03-20T07:43:24;415.73;;;15.90;;
65279;SDS011;51878;55.748;48.742;2023-03-20T07:48:27;526.47;;;18.15;;
65279;SDS011;51878;55.748;48.742;2023-03-20T07:53:29;356.63;;;14.18;;
65279;SDS011;51878;55.748;48.742;2023-03-20T07:58:31;333.45;;;13.68;;
65279;SDS011;51878;55.748;48.742;2023-03-20T08:03:36;268.98;;;11.35;;
65279;SDS011;51878;55.748;48.742;2023-03-20T08:08:39;217.90;;;10.38;;
65279;SDS011;51878;55.748;48.742;2023-03-20T08:13:42;160.35;;;10.00;;
65279;SDS011;51878;55.748;48.742;2023-03-20T08:18:44;234.68;;;10.13;;
65279;SDS011;51878;55.748;48.742;2023-03-20T08:23:46;324.08;;;12.80;;
65279;SDS011;51878;55.748;48.742;2023-03-20T08:28:48;107.18;;;8.48;;
65279;SDS011;51878;55.748;48.742;2023-03-20T08:33:52;411.15;;;13.73;;
65279;SDS011;51878;55.748;48.742;2023-03-20T08:38:56;76.40;;;8.10;;
65279;SDS011;51878;55.748;48.742;2023-03-20T08:43:58;87.15;;;7.32;;
65279;SDS011;51878;55.748;48.742;2023-03-20T08:49:00;106.30;;;7.18;;
65279;SDS011;51878;55.748;48.742;2023-03-20T08:54:03;133.15;;;9.10;;
65279;SDS011;51878;55.748;48.742;2023-03-20T08:59:05;109.90;;;7.43;;
65279;SDS011;51878;55.748;48.742;2023-03-20T09:04:07;152.50;;;8.75;;
65279;SDS011;51878;55.748;48.742;2023-03-20T09:09:09;235.82;;;10.07;;
65279;SDS011;51878;55.748;48.742;2023-03-20T09:14:11;108.10;;;8.63;;
65279;SDS011;51878;55.748;48.742;2023-03-20T09:19:14;275.00;;;10.65;;
65279;SDS011;51878;55.748;48.742;2023-03-20T09:24:16;150.00;;;10.88;;
65279;SDS011;51878;55.748;48.742;2023-03-20T09:29:18;298.35;;;12.50;;
65279;SDS011;51878;55.748;48.742;2023-03-20T09:34:20;184.32;;;9.30;;
65279;SDS011;51878;55.748;48.742;2023-03-20T09:39:23;142.70;;;9.43;;
65279;SDS011;51878;55.748;48.742;2023-03-20T09:44:44;111.55;;;7.80;;
65279;SDS011;51878;55.748;48.742;2023-03-20T09:50:30;220.10;;;9.43;;
65279;SDS011;51878;55.748;48.742;2023-03-20T09:55:39;145.38;;;9.77;;
65279;SDS011;51878;55.748;48.742;2023-03-20T10:00:44;220.35;;;9.95;;
65279;SDS011;51878;55.748;48.742;2023-03-20T10:05:53;280.15;;;11.98;;
65279;SDS011;51878;55.748;48.742;2023-03-20T10:21:22;209.50;;;10.82;;
65279;SDS011;51878;55.748;48.742;2023-03-20T10:26:35;82.53;;;9.70;;
65279;SDS011;51878;55.748;48.742;2023-03-20T10:42:29;9.93;;;6.35;;
65279;SDS011;51878;55.748;48.742;2023-03-20T10:47:37;9.52;;;6.18;;
65279;SDS011;51878;55.748;48.742;2023-03-20T10:52:43;12.32;;;6.35;;
65279;SDS011;51878;55.748;48.742;2023-03-20T10:57:51;11.05;;;6.60;;
65279;SDS011;51878;55.748;48.742;2023-03-20T11:02:56;14.05;;;7.65;;
65279;SDS011;51878;55.748;48.742;2023-03-20T11:08:00;12.82;;;7.40;;
65279;SDS011;51878;55.748;48.742;2023-03-20T11:18:33;10.57;;;6.93;;
65279;SDS011;51878;55.748;48.742;2023-03-20T11:23:36;16.00;;;8.05;;
65279;SDS011;51878;55.748;48.742;2023-03-20T11:28:38;47.00;;;8.43;;
65279;SDS011;51878;55.748;48.742;2023-03-20T11:33:52;77.20;;;10.95;;
65279;SDS011;51878;55.748;48.742;2023-03-20T11:39:25;98.63;;;11.65;;
65279;SDS011;51878;55.748;48.742;2023-03-20T11:44:29;99.25;;;10.77;;
65279;SDS011;51878;55.748;48.742;2023-03-20T11:49:43;51.05;;;9.35;;
65279;SDS011;51878;55.748;48.742;2023-03-20T11:54:49;57.17;;;9.23;;
65279;SDS011;51878;55.748;48.742;2023-03-20T11:59:54;42.55;;;9.27;;
65279;SDS011;51878;55.748;48.742;2023-03-20T12:05:00;31.80;;;8.80;;
65279;SDS011;51878;55.748;48.742;2023-03-20T12:10:04;65.13;;;9.90;;
65279;SDS011;51878;55.748;48.742;2023-03-20T12:25:48;53.50;;;8.82;;
65279;SDS011;51878;55.748;48.742;2023-03-20T12:36:17;45.00;;;9.40;;
65279;SDS011;51878;55.748;48.742;2023-03-20T12:41:36;103.88;;;9.27;;
65279;SDS011;51878;55.748;48.742;2023-03-20T12:52:39;84.72;;;8.77;;
65279;SDS011;51878;55.748;48.742;2023-03-20T13:14:26;98.70;;;11.15;;
65279;SDS011;51878;55.748;48.742;2023-03-20T13:19:48;75.55;;;10.57;;
65279;SDS011;51878;55.748;48.742;2023-03-20T13:25:02;54.95;;;10.05;;
65279;SDS011;51878;55.748;48.742;2023-03-20T13:41:10;23.00;;;10.60;;
65279;SDS011;51878;55.748;48.742;2023-03-20T13:46:18;21.15;;;10.02;;
65279;SDS011;51878;55.748;48.742;2023-03-20T14:07:42;16.35;;;9.32;;
65279;SDS011;51878;55.748;48.742;2023-03-20T14:18:03;18.75;;;10.38;;
65279;SDS011;51878;55.748;48.742;2023-03-20T14:23:17;17.10;;;10.13;;
65279;SDS011;51878;55.748;48.742;2023-03-20T14:28:30;18.65;;;10.00;;
65279;SDS011;51878;55.748;48.742;2023-03-20T14:34:06;19.65;;;10.70;;
65279;SDS011;51878;55.748;48.742;2023-03-20T14:44:23;19.70;;;11.20;;
65279;SDS011;51878;55.748;48.742;2023-03-20T14:49:50;19.02;;;11.23;;
65279;SDS011;51878;55.748;48.742;2023-03-20T14:55:25;18.35;;;10.05;;
65279;SDS011;51878;55.748;48.742;2023-03-20T15:00:32;18.05;;;10.95;;
65279;SDS011;51878;55.748;48.742;2023-03-20T15:05:37;28.98;;;10.95;;
65279;SDS011;51878;55.748;48.742;2023-03-20T15:10:48;21.50;;;10.63;;
65279;SDS011;51878;55.748;48.742;2023-03-20T15:15:58;15.77;;;10.35;;
65279;SDS011;51878;55.748;48.742;2023-03-20T15:21:15;21.20;;;11.50;;
65279;SDS011;51878;55.748;48.742;2023-03-20T15:26:21;16.45;;;9.32;;
65279;SDS011;51878;55.748;48.742;2023-03-20T15:31:29;17.27;;;10.95;;
65279;SDS011;51878;55.748;48.742;2023-03-20T15:36:34;24.27;;;10.93;;
65279;SDS011;51878;55.748;48.742;2023-03-20T15:41:43;43.92;;;10.55;;
65279;SDS011;51878;55.748;48.742;2023-03-20T15:47:00;22.45;;;12.15;;
65279;SDS011;51878;55.748;48.742;2023-03-20T15:57:35;87.82;;;13.40;;
65279;SDS011;51878;55.748;48.742;2023-03-20T16:02:39;100.32;;;11.35;;
65279;SDS011;51878;55.748;48.742;2023-03-20T16:07:42;74.65;;;11.63;;
65279;SDS011;51878;55.748;48.742;2023-03-20T16:12:51;100.10;;;12.82;;
65279;SDS011;51878;55.748;48.742;2023-03-20T16:18:00;50.25;;;10.23;;
65279;SDS011;51878;55.748;48.742;2023-03-20T16:23:06;79.13;;;12.20;;
65279;SDS011;51878;55.748;48.742;2023-03-20T16:28:10;59.97;;;12.00;;
65279;SDS011;51878;55.748;48.742;2023-03-20T16:33:15;27.25;;;12.15;;
65279;SDS011;51878;55.748;48.742;2023-03-20T16:38:23;40.80;;;11.48;;
65279;SDS011;51878;55.748;48.742;2023-03-20T16:43:30;47.50;;;11.23;;
65279;SDS011;51878;55.748;48.742;2023-03-20T16:48:33;50.65;;;11.55;;
65279;SDS011;51878;55.748;48.742;2023-03-20T16:53:52;119.30;;;12.43;;
65279;SDS011;51878;55.748;48.742;2023-03-20T16:59:10;56.25;;;11.07;;
65279;SDS011;51878;55.748;48.742;2023-03-20T17:04:20;98.28;;;11.70;;
65279;SDS011;51878;55.748;48.742;2023-03-20T17:09:36;170.90;;;13.18;;
65279;SDS011;51878;55.748;48.742;2023-03-20T17:14:38;168.45;;;14.45;;
65279;SDS011;51878;55.748;48.742;2023-03-20T17:19:46;128.02;;;12.13;;
65279;SDS011;51878;55.748;48.742;2023-03-20T17:24:50;177.70;;;12.70;;
65279;SDS011;51878;55.748;48.742;2023-03-20T17:29:53;270.35;;;13.35;;
65279;SDS011;51878;55.748;48.742;2023-03-20T17:34:57;208.02;;;12.73;;
65279;SDS011;51878;55.748;48.742;2023-03-20T17:40:05;221.63;;;15.55;;
65279;SDS011;51878;55.748;48.742;2023-03-20T17:45:08;131.80;;;11.15;;
65279;SDS011;51878;55.748;48.742;2023-03-20T17:50:20;170.48;;;12.35;;
65279;SDS011;51878;55.748;48.742;2023-03-20T17:55:27;196.73;;;12.52;;
65279;SDS011;51878;55.748;48.742;2023-03-20T18:00:30;134.32;;;11.02;;
65279;SDS011;51878;55.748;48.742;2023-03-20T18:05:32;168.13;;;10.63;;
65279;SDS011;51878;55.748;48.742;2023-03-20T18:10:35;104.07;;;10.23;;
65279;SDS011;51878;55.748;48.742;2023-03-20T18:15:38;138.82;;;10.65;;
65279;SDS011;51878;55.748;48.742;2023-03-20T18:20:40;202.75;;;11.48;;
65279;SDS011;51878;55.748;48.742;2023-03-20T18:25:43;193.45;;;11.55;;
65279;SDS011;51878;55.748;48.742;2023-03-20T18:30:45;161.13;;;9.82;;
65279;SDS011;51878;55.748;48.742;2023-03-20T18:35:50;134.35;;;11.05;;
65279;SDS011;51878;55.748;48.742;2023-03-20T18:40:52;139.00;;;10.73;;
65279;SDS011;51878;55.748;48.742;2023-03-20T18:45:54;75.15;;;10.18;;
65279;SDS011;51878;55.748;48.742;2023-03-20T18:50:56;108.90;;;9.45;;
65279;SDS011;51878;55.748;48.742;2023-03-20T18:56:02;87.05;;;10.52;;
65279;SDS011;51878;55.748;48.742;2023-03-20T19:01:05;148.77;;;11.80;;
65279;SDS011;51878;55.748;48.742;2023-03-20T19:06:11;140.95;;;8.88;;
65279;SDS011;51878;55.748;48.742;2023-03-20T19:11:18;118.00;;;8.97;;
65279;SDS011;51878;55.748;48.742;2023-03-20T19:16:23;248.68;;;11.02;;
65279;SDS011;51878;55.748;48.742;2023-03-20T19:21:28;220.02;;;10.43;;
65279;SDS011;51878;55.748;48.742;2023-03-20T19:26:32;183.20;;;11.10;;
65279;SDS011;51878;55.748;48.742;2023-03-20T19:31:35;158.77;;;11.63;;
65279;SDS011;51878;55.748;48.742;2023-03-20T19:36:38;174.07;;;10.68;;
65279;SDS011;51878;55.748;48.742;2023-03-20T19:41:40;174.30;;;11.02;;
65279;SDS011;51878;55.748;48.742;2023-03-20T19:46:51;144.95;;;11.23;;
65279;SDS011;51878;55.748;48.742;2023-03-20T19:51:53;175.93;;;11.93;;
65279;SDS011;51878;55.748;48.742;2023-03-20T19:56:55;113.10;;;9.98;;
65279;SDS011;51878;55.748;48.742;2023-03-20T20:01:58;115.13;;;10.38;;
65279;SDS011;51878;55.748;48.742;2023-03-20T20:07:00;86.10;;;8.75;;
65279;SDS011;51878;55.748;48.742;2023-03-20T20:12:22;78.13;;;10.07;;
65279;SDS011;51878;55.748;48.742;2023-03-20T20:17:24;50.60;;;8.00;;
65279;SDS011;51878;55.748;48.742;2023-03-20T20:22:29;157.70;;;10.40;;
65279;SDS011;51878;55.748;48.742;2023-03-20T20:27:36;102.38;;;8.63;;
65279;SDS011;51878;55.748;48.742;2023-03-20T20:32:39;139.07;;;10.30;;
65279;SDS011;51878;55.748;48.742;2023-03-20T20:37:41;96.75;;;9.32;;
65279;SDS011;51878;55.748;48.742;2023-03-20T20:43:04;46.53;;;8.85;;
65279;SDS011;51878;55.748;48.742;2023-03-20T20:48:11;49.30;;;8.57;;
65279;SDS011;51878;55.748;48.742;2023-03-20T20:53:16;89.90;;;8.38;;
65279;SDS011;51878;55.748;48.742;2023-03-20T20:58:22;88.72;;;10.95;;
65279;SDS011;51878;55.748;48.742;2023-03-20T21:08:54;100.95;;;10.50;;
65279;SDS011;51878;55.748;48.742;2023-03-20T21:13:56;80.95;;;10.85;;
65279;SDS011;51878;55.748;48.742;2023-03-20T21:18:58;18.27;;;9.00;;
65279;SDS011;51878;55.748;48.742;2023-03-20T21:24:01;41.28;;;9.82;;
65279;SDS011;51878;55.748;48.742;2023-03-20T21:29:03;28.50;;;9.90;;
65279;SDS011;51878;55.748;48.742;2023-03-20T21:34:15;33.72;;;10.63;;
65279;SDS011;51878;55.748;48.742;2023-03-20T21:39:17;15.65;;;8.05;;
65279;SDS011;51878;55.748;48.742;2023-03-20T21:44:20;37.70;;;11.52;;
65279;SDS011;51878;55.748;48.742;2023-03-20T21:49:42;17.08;;;11.10;;
65279;SDS011;51878;55.748;48.742;2023-03-20T21:55:04;16.38;;;10.20;;
65279;SDS011;51878;55.748;48.742;2023-03-20T22:00:27;17.55;;;9.73;;
65279;SDS011;51878;55.748;48.742;2023-03-20T22:05:49;19.00;;;10.98;;
65279;SDS011;51878;55.748;48.742;2023-03-20T22:11:12;17.05;;;9.50;;
65279;SDS011;51878;55.748;48.742;2023-03-20T22:16:35;17.23;;;11.68;;
65279;SDS011;51878;55.748;48.742;2023-03-20T22:21:57;16.80;;;10.32;;
65279;SDS011;51878;55.748;48.742;2023-03-20T22:27:19;21.92;;;12.57;;
65279;SDS011;51878;55.748;48.742;2023-03-20T22:32:43;20.40;;;12.48;;
65279;SDS011;51878;55.748;48.742;2023-03-20T22:38:05;16.40;;;10.70;;
65279;SDS011;51878;55.748;48.742;2023-03-20T22:43:27;16.92;;;10.95;;
65279;SDS011;51878;55.748;48.742;2023-03-20T22:48:49;17.92;;;12.45;;
65279;SDS011;51878;55.748;48.742;2023-03-20T22:53:51;15.10;;;10.75;;
65279;SDS011;51878;55.748;48.742;2023-03-20T22:58:53;21.25;;;12.60;;
65279;SDS011;51878;55.748;48.742;2023-03-20T23:03:56;16.75;;;11.05;;
65279;SDS011;51878;55.748;48.742;2023-03-20T23:08:58;18.38;;;11.20;;
65279;SDS011;51878;55.748;48.742;2023-03-20T23:14:09;22.48;;;12.00;;
65279;SDS011;51878;55.748;48.742;2023-03-20T23:19:21;17.70;;;11.10;;
65279;SDS011;51878;55.748;48.742;2023-03-20T23:24:23;14.93;;;10.23;;
65279;SDS011;51878;55.748;48.742;2023-03-20T23:29:25;15.80;;;9.80;;
65279;SDS011;51878;55.748;48.742;2023-03-20T23:34:28;16.38;;;10.23;;
65279;SDS011;51878;55.748;48.742;2023-03-20T23:39:30;15.65;;;11.27;;
65279;SDS011;51878;55.748;48.742;2023-03-20T23:44:32;18.30;;;11.10;;
65279;SDS011;51878;55.748;48.742;2023-03-20T23:49:36;16.65;;;10.82;;
65279;SDS011;51878;55.748;48.742;2023-03-20T23:54:40;16.77;;;10.23;;
65279;SDS011;51878;55.748;48.742;2023-03-20T23:59:42;19.20;;;12.18;;
